Hovedside
METAR-TAF:

METAR-TAF

Lufthavner :

Amritsar, India

breddegrad: 31-38N, lengdegrad: 074-52E, høyde over havet: 229 m

Gjeldene værobservasjon

Denne rapporten ble laget for 15 minutter siden, klokken 21:30 UTC
Vind 2 kt fra skiftende retning
Temperatur 33°C
Luftfuktighet 53%
Trykk 998 hPa
Sikt: 5000 m
dis,

METAR: VIAR 142130Z VRB02KT 5000 HZ NSC 33/22 Q0998 NOSIG

Tid: 03:15 (21:45 UTC)

Varsel

Denne rapporten ble laget for 1 time og 45 minutter siden, klokken 20:00 UTC
Varsel gyldig fra 14. klokken 21 UTC til 15. klokken 06 UTC
Vind 2 kt fra skiftende retning
Sikt: 6000 m
Blir
fra 15. klokken 00 UTC til 15. klokken 02 UTC
Vind 4 kt fra Vest-sørvest
Sikt: 4000 m
dis
Blir
fra 15. klokken 04 UTC til 15. klokken 06 UTC
Vind 8 kt fra Vest-nordvest
Sikt: 5000 m
Få skyer i en høyde av 10000 ft
dis,

TAF: VIAR 142000Z 1421/1506 VRB02KT 6000 NSC BECMG 1500/1502 25004KT 4000 HZ BECMG 1504/1506 29008KT 5000 HZ FEW100

Værobservasjoner og værvarsel for over 4000 flyplasser (METAR- og TAF-rapporter).

Tilgjengelige stasjoner er representert av de røde og gule prikkene på kartet.

Hold musepekeren over prikken for å se navnet på stasjonen.

Klikk så for å se værobservasjoner og -varsler.

For å forandre kartet kan du klikke på den grønne knappen med svart kryss for å zoome inn, på den grønne knappen med strek for å zoome ut, eller på de grønne pilene for å se tilstøtende kart.


METAR-TAF: